createdAt,value
2023-04-09T00:01:12.665Z,101039.86
2023-04-09T00:03:41.221Z,101041.55
2023-04-09T00:06:12.314Z,101038.06
2023-04-09T00:09:15.701Z,101031.86
2023-04-09T00:11:43.810Z,101029.79
2023-04-09T00:14:11.975Z,101028.70
2023-04-09T00:16:40.677Z,101029.13
2023-04-09T00:19:08.712Z,101028.02
2023-04-09T00:21:39.211Z,101028.73
2023-04-09T00:24:07.999Z,101032.56
2023-04-09T00:26:36.547Z,101030.81
2023-04-09T00:29:07.932Z,101033.52
2023-04-09T00:31:36.289Z,101035.02
2023-04-09T00:34:07.469Z,101033.66
2023-04-09T00:36:35.408Z,101038.43
2023-04-09T00:39:09.250Z,101036.01
2023-04-09T00:41:39.901Z,101038.49
2023-04-09T00:44:07.963Z,101038.77
2023-04-09T00:46:38.705Z,101036.47
2023-04-09T00:49:06.847Z,101037.22
2023-04-09T00:51:36.932Z,101035.21
2023-04-09T00:54:05.649Z,101039.90
2023-04-09T00:56:34.691Z,101039.02
2023-04-09T00:59:05.969Z,101043.38
2023-04-09T01:01:34.260Z,101042.96
2023-04-09T01:04:02.578Z,101040.41
2023-04-09T01:06:43.999Z,101043.67
2023-04-09T01:09:22.845Z,101039.10
2023-04-09T01:12:12.090Z,101035.04
2023-04-09T01:14:57.492Z,101034.34
2023-04-09T01:17:38.274Z,101034.77
2023-04-09T01:20:15.491Z,101038.36
2023-04-09T01:23:37.014Z,101035.10
2023-04-09T01:26:19.355Z,101031.75
2023-04-09T01:29:00.465Z,101029.09
2023-04-09T01:31:34.626Z,101032.59
2023-04-09T01:34:12.889Z,101031.11
2023-04-09T01:36:45.878Z,101033.25
2023-04-09T01:39:33.183Z,101037.96
2023-04-09T01:42:11.013Z,101040.26
2023-04-09T01:44:42.787Z,101041.84
2023-04-09T01:47:11.504Z,101043.27
2023-04-09T01:49:45.234Z,101045.61
2023-04-09T01:52:13.936Z,101045.66
2023-04-09T01:54:43.208Z,101044.73
2023-04-09T01:57:11.390Z,101046.09
2023-04-09T01:59:39.865Z,101050.11
2023-04-09T02:02:24.759Z,101051.81
2023-04-09T02:04:54.368Z,101057.30
2023-04-09T02:07:39.335Z,101063.86
2023-04-09T02:10:13.434Z,101060.50
2023-04-09T02:12:49.418Z,101065.02
2023-04-09T02:15:19.340Z,101065.80
2023-04-09T02:17:47.771Z,101069.31
2023-04-09T02:20:19.638Z,101074.91
2023-04-09T02:22:48.435Z,101074.78
2023-04-09T02:25:16.303Z,101076.63
2023-04-09T02:27:44.189Z,101075.27
2023-04-09T02:30:12.200Z,101072.90
2023-04-09T02:32:40.415Z,101074.33
2023-04-09T02:35:08.918Z,101073.36
2023-04-09T02:37:36.876Z,101075.52
2023-04-09T02:40:05.323Z,101075.41
2023-04-09T02:42:33.220Z,101075.29
2023-04-09T02:45:04.414Z,101077.39
2023-04-09T02:47:36.261Z,101078.17
2023-04-09T02:50:05.244Z,101075.89
2023-04-09T02:52:35.731Z,101076.02
2023-04-09T02:55:07.256Z,101075.70
2023-04-09T02:57:37.303Z,101076.11
2023-04-09T03:00:05.987Z,101077.27
2023-04-09T03:02:43.701Z,101075.46
2023-04-09T03:05:12.261Z,101077.05
2023-04-09T03:07:40.468Z,101074.15
2023-04-09T03:10:11.906Z,101076.84
2023-04-09T03:12:55.291Z,101077.84
2023-04-09T03:15:23.940Z,101079.02
2023-04-09T03:17:52.285Z,101075.67
2023-04-09T03:20:34.996Z,101073.85
2023-04-09T03:23:03.744Z,101076.76
2023-04-09T03:25:36.837Z,101076.48
2023-04-09T03:28:12.636Z,101070.50
2023-04-09T03:30:43.488Z,101076.48
2023-04-09T03:33:11.602Z,101070.03
2023-04-09T03:35:52.542Z,101071.91
2023-04-09T03:38:28.206Z,101072.60
2023-04-09T03:40:57.146Z,101074.58
2023-04-09T03:43:28.268Z,101078.37
2023-04-09T03:45:56.441Z,101074.71
2023-04-09T03:48:27.030Z,101074.27
2023-04-09T03:51:04.691Z,101075.98
2023-04-09T03:53:37.853Z,101078.54
2023-04-09T03:56:07.973Z,101074.99
2023-04-09T03:58:39.665Z,101073.64
2023-04-09T04:01:08.545Z,101078.84
2023-04-09T04:03:43.644Z,101081.27
2023-04-09T04:06:38.331Z,101081.80
2023-04-09T04:09:35.601Z,101086.52
2023-04-09T04:12:07.492Z,101086.54
2023-04-09T04:14:51.046Z,101088.52
2023-04-09T04:17:31.711Z,101086.39
2023-04-09T04:20:01.509Z,101084.60
2023-04-09T04:22:33.253Z,101084.22
2023-04-09T04:25:03.840Z,101082.38
2023-04-09T04:27:31.938Z,101080.84
2023-04-09T04:30:02.122Z,101084.95
2023-04-09T04:32:51.117Z,101091.48
2023-04-09T04:35:21.836Z,101091.21
2023-04-09T04:37:53.325Z,101093.23
2023-04-09T04:40:24.899Z,101086.39
2023-04-09T04:43:00.518Z,101090.41
2023-04-09T04:45:35.076Z,101089.30
2023-04-09T04:48:09.482Z,101091.39
2023-04-09T04:50:38.332Z,101087.84
2023-04-09T04:53:10.069Z,101089.04
2023-04-09T04:55:46.267Z,101091.68
2023-04-09T04:58:16.607Z,101092.75
2023-04-09T05:00:49.271Z,101097.88
2023-04-09T05:03:18.158Z,101096.30
2023-04-09T05:06:06.076Z,101099.52
2023-04-09T05:08:45.086Z,101102.73
2023-04-09T05:11:15.117Z,101099.41
2023-04-09T05:13:43.515Z,101096.34
2023-04-09T05:16:21.085Z,101098.35
2023-04-09T05:18:55.233Z,101095.80
2023-04-09T05:21:27.649Z,101097.42
2023-04-09T05:23:57.734Z,101099.23
2023-04-09T05:26:27.418Z,101098.51
2023-04-09T05:28:58.696Z,101097.64
2023-04-09T05:31:27.227Z,101102.47
2023-04-09T05:34:16.501Z,101103.52
2023-04-09T05:36:47.932Z,101100.52
2023-04-09T05:39:18.984Z,101106.17
2023-04-09T05:41:56.836Z,101106.22
2023-04-09T05:44:27.765Z,101104.04
2023-04-09T05:47:18.973Z,101101.54
2023-04-09T05:49:59.767Z,101101.87
2023-04-09T05:52:28.810Z,101104.79
2023-04-09T05:55:06.796Z,101106.86
2023-04-09T05:57:48.085Z,101113.59
2023-04-09T06:00:25.757Z,101112.04
2023-04-09T06:02:53.799Z,101111.13
2023-04-09T06:05:22.180Z,101110.79
2023-04-09T06:07:50.681Z,101108.39
2023-04-09T06:10:18.746Z,101108.29
2023-04-09T06:12:48.524Z,101111.58
2023-04-09T06:15:19.963Z,101106.67
2023-04-09T06:17:48.379Z,101107.44
2023-04-09T06:20:17.308Z,101107.92
2023-04-09T06:22:48.379Z,101104.91
2023-04-09T06:25:17.157Z,101111.79
2023-04-09T06:27:45.222Z,101119.44
2023-04-09T06:30:35.876Z,101118.38
2023-04-09T06:33:03.788Z,101117.86
2023-04-09T06:35:37.101Z,101115.92
2023-04-09T06:38:05.371Z,101114.48
2023-04-09T06:40:33.580Z,101115.77
2023-04-09T06:43:01.970Z,101115.69
2023-04-09T06:45:39.113Z,101113.45
2023-04-09T06:48:09.265Z,101110.21
2023-04-09T06:50:46.864Z,101115.56
2023-04-09T06:53:15.673Z,101124.10
2023-04-09T06:55:46.615Z,101120.68
2023-04-09T06:58:14.456Z,101122.19
2023-04-09T07:00:42.781Z,101124.97
2023-04-09T07:03:11.488Z,101120.11
2023-04-09T07:05:39.682Z,101121.90
2023-04-09T07:08:08.032Z,101124.28
2023-04-09T07:10:38.451Z,101125.36
2023-04-09T07:13:06.759Z,101130.01
2023-04-09T07:15:34.976Z,101130.91
2023-04-09T07:18:03.316Z,101130.58
2023-04-09T07:20:34.345Z,101132.77
2023-04-09T07:23:02.576Z,101130.63
2023-04-09T07:25:33.211Z,101133.46
2023-04-09T07:28:44.353Z,101138.22
2023-04-09T07:31:24.200Z,101138.02
2023-04-09T07:33:55.441Z,101143.70
2023-04-09T07:36:26.686Z,101143.33
2023-04-09T07:38:57.747Z,101138.60
2023-04-09T07:41:25.991Z,101136.11
2023-04-09T07:43:54.051Z,101136.30
2023-04-09T07:46:22.357Z,101138.17
2023-04-09T07:48:51.081Z,101140.48
2023-04-09T07:51:22.266Z,101138.30
2023-04-09T07:53:50.679Z,101139.76
2023-04-09T07:56:22.427Z,101137.73
2023-04-09T07:58:51.421Z,101141.09
2023-04-09T13:02:36.657Z,101103.31
2023-04-09T13:05:05.546Z,101107.48
2023-04-09T13:07:33.476Z,101108.36
2023-04-09T13:10:01.689Z,101112.78
2023-04-09T13:12:30.243Z,101105.70
2023-04-09T13:14:59.239Z,101107.23
2023-04-09T13:17:27.439Z,101107.88
2023-04-09T13:19:55.630Z,101104.54
2023-04-09T13:22:23.684Z,101102.40
2023-04-09T13:24:51.531Z,101102.69
2023-04-09T13:27:19.402Z,101103.84
2023-04-09T13:29:47.380Z,101102.77
2023-04-09T13:32:15.604Z,101106.86
2023-04-09T13:34:43.526Z,101105.18
2023-04-09T13:37:11.777Z,101105.73
2023-04-09T13:39:39.784Z,101106.77
2023-04-09T13:42:13.736Z,101111.13
2023-04-09T13:44:45.098Z,101109.94
2023-04-09T13:47:13.645Z,101113.56
2023-04-09T13:49:42.429Z,101112.81
2023-04-09T13:52:10.863Z,101116.67
2023-04-09T13:54:38.776Z,101117.90
2023-04-09T13:57:06.953Z,101115.25
2023-04-09T13:59:34.866Z,101116.05
2023-04-09T14:02:02.957Z,101113.83
2023-04-09T14:04:34.719Z,101111.59
2023-04-09T14:07:02.625Z,101110.04
2023-04-09T14:09:30.669Z,101113.17
2023-04-09T14:11:58.702Z,101110.33
2023-04-09T14:14:26.633Z,101104.23
2023-04-09T14:16:55.560Z,101100.55
2023-04-09T14:19:24.270Z,101103.02
2023-04-09T14:21:53.362Z,101100.91
2023-04-09T14:24:23.194Z,101100.97
2023-04-09T14:26:53.489Z,101102.84
2023-04-09T14:29:22.175Z,101100.71
2023-04-09T14:31:50.731Z,101099.16
2023-04-09T14:34:18.703Z,101096.77
2023-04-09T14:36:47.193Z,101093.95
2023-04-09T14:39:15.954Z,101091.06
2023-04-09T14:41:43.873Z,101093.44
2023-04-09T14:44:14.680Z,101090.61
2023-04-09T14:46:43.443Z,101089.23
2023-04-09T14:49:11.382Z,101092.00
2023-04-09T14:51:39.509Z,101092.01
2023-04-09T14:54:07.391Z,101088.20
2023-04-09T14:56:35.415Z,101086.89
2023-04-09T14:59:06.225Z,101086.58
2023-04-09T15:01:34.309Z,101088.61
2023-04-09T15:04:02.730Z,101086.24
2023-04-09T15:06:32.348Z,101086.98
2023-04-09T15:09:00.738Z,101082.70
2023-04-09T15:11:29.545Z,101079.09
2023-04-09T15:13:58.073Z,101081.59
2023-04-09T15:16:27.687Z,101078.57
2023-04-09T15:18:57.811Z,101083.65
2023-04-09T15:21:27.181Z,101080.67
2023-04-09T15:23:56.319Z,101078.95
2023-04-09T15:26:24.501Z,101083.78
2023-04-09T15:28:53.709Z,101078.99
2023-04-09T15:31:21.801Z,101085.40
2023-04-09T15:33:50.419Z,101081.38
2023-04-09T15:36:18.399Z,101081.59
2023-04-09T15:38:46.471Z,101083.29
2023-04-09T15:41:16.922Z,101084.23
2023-04-09T15:43:44.788Z,101084.20
2023-04-09T15:46:12.872Z,101087.91
2023-04-09T15:48:41.728Z,101085.23
2023-04-09T15:51:10.176Z,101084.92
2023-04-09T15:53:38.058Z,101076.38
2023-04-09T15:56:06.538Z,101080.73
2023-04-09T15:58:36.234Z,101079.14
2023-04-09T16:01:11.056Z,101073.85
2023-04-09T16:03:41.891Z,101071.86
2023-04-09T16:06:13.508Z,101068.64
2023-04-09T16:08:41.759Z,101072.02
2023-04-09T16:11:10.602Z,101068.26
2023-04-09T16:13:38.477Z,101071.69
2023-04-09T16:16:07.473Z,101071.60
2023-04-09T16:18:36.015Z,101074.05
2023-04-09T16:21:04.348Z,101077.06
2023-04-09T16:23:33.064Z,101076.41
2023-04-09T16:26:01.229Z,101074.19
2023-04-09T16:28:29.053Z,101071.67
2023-04-09T16:30:59.264Z,101071.14
2023-04-09T16:33:27.626Z,101072.46
2023-04-09T16:35:55.690Z,101060.88
2023-04-09T16:38:24.774Z,101067.35
2023-04-09T16:40:55.118Z,101060.13
2023-04-09T16:43:22.959Z,101060.45
2023-04-09T16:45:52.329Z,101062.11
2023-04-09T16:48:20.997Z,101062.09
2023-04-09T16:50:49.283Z,101060.14
2023-04-09T16:53:17.183Z,101063.90
2023-04-09T16:55:45.177Z,101062.26
2023-04-09T16:58:13.385Z,101065.70
2023-04-09T17:00:42.116Z,101061.50
2023-04-09T17:03:12.617Z,101061.64
2023-04-09T17:05:40.483Z,101065.48
2023-04-09T17:08:08.479Z,101062.98
2023-04-09T17:10:37.114Z,101064.20
2023-04-09T17:13:14.910Z,101068.23
2023-04-09T17:15:43.829Z,101066.73
2023-04-09T17:18:12.244Z,101066.23
2023-04-09T17:20:40.740Z,101067.94
2023-04-09T17:23:08.989Z,101067.54
2023-04-09T17:25:37.044Z,101070.95
2023-04-09T17:28:05.028Z,101065.27
2023-04-09T17:30:33.399Z,101069.99
2023-04-09T17:33:01.838Z,101072.35
2023-04-09T17:35:30.259Z,101070.55
2023-04-09T17:37:58.892Z,101070.45
2023-04-09T17:40:28.263Z,101071.92
2023-04-09T17:42:56.510Z,101069.46
2023-04-09T17:45:25.427Z,101073.74
2023-04-09T17:47:53.499Z,101081.80
2023-04-09T17:53:03.831Z,101096.13
2023-04-09T17:55:32.369Z,101097.30
2023-04-09T17:58:00.511Z,101099.75
2023-04-09T18:00:28.522Z,101099.25
2023-04-09T18:02:57.643Z,101104.23
2023-04-09T18:05:27.653Z,101108.20
2023-04-09T18:07:56.876Z,101107.90
2023-04-09T18:10:25.402Z,101107.73
2023-04-09T18:12:53.610Z,101108.73
2023-04-09T18:15:22.645Z,101111.43
2023-04-09T18:17:51.567Z,101108.30
2023-04-09T18:20:19.599Z,101110.92
2023-04-09T18:22:47.574Z,101111.94
2023-04-09T18:25:15.879Z,101118.11
2023-04-09T18:27:46.774Z,101122.88
2023-04-09T18:30:14.683Z,101120.27
2023-04-09T18:32:43.491Z,101126.77
2023-04-09T18:35:12.224Z,101125.37
2023-04-09T18:37:40.568Z,101127.69
2023-04-09T18:40:15.500Z,101131.88
2023-04-09T18:42:46.530Z,101130.36
2023-04-09T18:45:16.686Z,101131.52
2023-04-09T18:47:45.364Z,101132.78
2023-04-09T18:50:18.213Z,101133.89
2023-04-09T18:52:46.244Z,101137.49
2023-04-09T18:55:14.810Z,101136.05
2023-04-09T18:57:44.239Z,101135.02
2023-04-09T19:00:12.986Z,101136.59
2023-04-09T19:02:41.118Z,101143.31
2023-04-09T19:05:09.661Z,101144.52
2023-04-09T19:07:37.972Z,101140.55
2023-04-09T19:10:06.604Z,101139.65
2023-04-09T19:12:34.537Z,101143.93
2023-04-09T19:15:07.032Z,101140.75
2023-04-09T19:17:35.039Z,101141.77
2023-04-09T19:20:04.430Z,101141.62
2023-04-09T19:22:32.933Z,101142.55
2023-04-09T19:25:00.903Z,101147.64
2023-04-09T19:27:28.974Z,101153.17
2023-04-09T19:29:58.855Z,101151.71
2023-04-09T19:32:27.278Z,101154.45
2023-04-09T19:34:58.696Z,101154.59
2023-04-09T19:37:28.853Z,101152.04
2023-04-09T19:39:58.158Z,101152.77
2023-04-09T19:42:28.754Z,101157.08
2023-04-09T19:44:57.342Z,101157.91
2023-04-09T19:47:27.407Z,101158.61
2023-04-09T19:49:55.589Z,101156.80
2023-04-09T19:52:23.793Z,101162.14
2023-04-09T19:54:56.420Z,101162.21
2023-04-09T19:57:26.561Z,101163.65
2023-04-09T19:59:55.265Z,101161.43
2023-04-09T20:02:24.101Z,101165.91
2023-04-09T20:04:52.571Z,101163.41
2023-04-09T20:07:20.897Z,101163.97
2023-04-09T20:09:49.718Z,101167.25
2023-04-09T20:12:17.724Z,101163.44
2023-04-09T20:14:46.645Z,101162.08
2023-04-09T20:17:14.553Z,101163.23
2023-04-09T20:19:42.471Z,101164.61
2023-04-09T20:22:10.496Z,101168.29
2023-04-09T20:24:38.512Z,101169.95
2023-04-09T20:27:06.530Z,101169.80
2023-04-09T20:29:34.722Z,101174.15
2023-04-09T20:32:03.609Z,101173.56
2023-04-09T20:34:32.602Z,101172.52
2023-04-09T20:37:00.539Z,101168.70
2023-04-09T20:39:30.476Z,101166.62
2023-04-09T20:41:58.702Z,101171.61
2023-04-09T20:44:29.023Z,101167.94
2023-04-09T20:46:57.039Z,101166.04
2023-04-09T20:49:29.802Z,101171.92
2023-04-09T20:51:58.393Z,101165.58
2023-04-09T20:54:29.866Z,101168.33
2023-04-09T20:56:57.952Z,101167.79
2023-04-09T20:59:26.429Z,101165.08
2023-04-09T21:01:57.612Z,101166.75
2023-04-09T21:04:26.121Z,101161.56
2023-04-09T21:06:54.517Z,101159.34
2023-04-09T21:09:22.448Z,101155.95
2023-04-09T21:11:50.536Z,101152.95
2023-04-09T21:14:18.442Z,101154.93
2023-04-09T21:16:46.488Z,101154.70
2023-04-09T21:19:14.567Z,101153.30
2023-04-09T21:21:42.626Z,101157.86
2023-04-09T21:24:10.511Z,101157.39
2023-04-09T21:26:49.533Z,101157.48
2023-04-09T21:29:21.258Z,101157.20
2023-04-09T21:31:49.973Z,101157.63
2023-04-09T21:34:17.848Z,101152.65
2023-04-09T21:36:46.281Z,101154.10
2023-04-09T21:39:14.433Z,101155.86
2023-04-09T21:41:42.457Z,101155.14
2023-04-09T21:44:10.529Z,101158.31
2023-04-09T21:46:40.701Z,101158.45
2023-04-09T21:49:08.927Z,101160.21
2023-04-09T21:51:37.506Z,101162.80
2023-04-09T21:54:07.104Z,101164.33
2023-04-09T21:56:35.969Z,101163.41
2023-04-09T21:59:04.043Z,101158.36
2023-04-09T22:01:33.609Z,101161.05
2023-04-09T22:04:02.097Z,101158.05
2023-04-09T22:06:31.287Z,101158.85
2023-04-09T22:09:00.043Z,101158.03
2023-04-09T22:11:28.647Z,101158.98
2023-04-09T22:13:57.533Z,101160.77
2023-04-09T22:16:26.401Z,101155.85
2023-04-09T22:18:54.797Z,101157.89
2023-04-09T22:21:23.202Z,101153.19
2023-04-09T22:23:51.529Z,101153.54
2023-04-09T22:26:19.999Z,101155.23
2023-04-09T22:28:48.067Z,101151.95
2023-04-09T22:31:16.902Z,101156.45
2023-04-09T22:33:44.799Z,101154.25
2023-04-09T22:36:12.800Z,101148.85
2023-04-09T22:38:40.695Z,101146.41
2023-04-09T22:41:08.563Z,101149.79
2023-04-09T22:43:37.222Z,101149.28
2023-04-09T22:46:06.039Z,101150.88
2023-04-09T22:48:40.829Z,101154.62
2023-04-09T22:51:13.749Z,101157.59
2023-04-09T22:53:42.014Z,101158.96
2023-04-09T22:56:10.070Z,101161.17
2023-04-09T22:58:38.476Z,101160.28
2023-04-09T23:01:06.901Z,101158.86
2023-04-09T23:03:35.012Z,101153.64
2023-04-09T23:06:03.126Z,101154.98
2023-04-09T23:08:31.313Z,101152.53
2023-04-09T23:10:59.168Z,101148.88
2023-04-09T23:13:27.173Z,101152.44
2023-04-09T23:15:55.139Z,101155.14
2023-04-09T23:18:23.064Z,101159.98
2023-04-09T23:20:51.236Z,101155.04
2023-04-09T23:23:19.284Z,101159.11
2023-04-09T23:25:47.109Z,101160.48
2023-04-09T23:28:15.041Z,101161.02
2023-04-09T23:30:43.988Z,101157.52
2023-04-09T23:33:11.851Z,101157.51
2023-04-09T23:35:39.955Z,101156.63
2023-04-09T23:38:08.067Z,101150.44
2023-04-09T23:40:36.000Z,101145.75
2023-04-09T23:43:04.673Z,101144.73
2023-04-09T23:45:32.520Z,101152.61
2023-04-09T23:48:00.911Z,101152.90
2023-04-09T23:50:29.069Z,101153.50
2023-04-09T23:53:03.406Z,101150.44
2023-04-09T23:55:33.552Z,101146.98
2023-04-09T23:58:01.651Z,101143.50
